Time;durP1;ratioP1;P1;durP2;ratioP2;P2;SDS_P1;SDS_P2;PMS_P1;PMS_P2;Temp;Humidity;BMP_temperature;BMP_pressure;BME280_temperature;BME280_humidity;BME280_pressure;Samples;Min_cycle;Max_cycle;Signal;HPM_P1;HPM_P2
2021/08/10 00:00:36;;;;;;;10.10;4.70;;;;;;;21.30;74.09;98857.56;4961765;28;20549;-62
2021/08/10 00:03:02;;;;;;;8.25;4.40;;;;;;;21.19;74.48;98840.53;4959724;28;20026;-63
2021/08/10 00:05:27;;;;;;;8.98;4.28;;;;;;;21.26;74.62;98853.72;4980431;28;20122;-63
2021/08/10 00:07:53;;;;;;;7.93;4.70;;;;;;;21.22;74.50;98847.22;4980087;28;20429;-63
2021/08/10 00:10:18;;;;;;;7.72;4.13;;;;;;;21.23;74.45;98854.97;4973771;28;20037;-63
2021/08/10 00:12:44;;;;;;;10.98;4.45;;;;;;;21.16;74.78;98848.88;4976802;28;20106;-62
2021/08/10 00:15:10;;;;;;;10.77;4.13;;;;;;;21.09;74.61;98842.78;4978374;28;20580;-63
2021/08/10 00:17:36;;;;;;;7.60;4.13;;;;;;;21.23;74.38;98848.84;4980234;28;20022;-63
2021/08/10 00:20:02;;;;;;;8.20;4.25;;;;;;;21.24;73.99;98859.22;4976864;28;20089;-64
2021/08/10 00:22:28;;;;;;;8.68;4.25;;;;;;;21.27;73.37;98858.81;4976913;28;20034;-63
2021/08/10 00:24:53;;;;;;;9.27;4.60;;;;;;;20.96;72.64;98803.19;4976180;28;20018;-63
2021/08/10 00:27:19;;;;;;;7.88;4.50;;;;;;;20.92;73.54;98793.00;4973702;28;20022;-60
2021/08/10 00:29:44;;;;;;;9.77;4.32;;;;;;;20.98;72.79;98801.16;4977311;28;20034;-60
2021/08/10 00:32:10;;;;;;;8.95;4.30;;;;;;;21.25;71.30;98834.41;4984658;28;20452;-63
2021/08/10 00:34:36;;;;;;;7.85;4.20;;;;;;;21.20;72.07;98818.34;4975923;28;20031;-62
2021/08/10 00:37:06;;;;;;;10.45;4.35;;;;;;;21.16;71.85;98813.69;4976837;28;20030;-63
2021/08/10 00:39:32;;;;;;;8.55;3.83;;;;;;;21.30;72.26;98841.69;4975691;28;20027;-63
2021/08/10 00:41:57;;;;;;;7.88;3.95;;;;;;;21.18;72.00;98844.19;4978592;28;20833;-60
2021/08/10 00:44:23;;;;;;;8.98;3.88;;;;;;;21.19;72.25;98859.03;4975599;28;20038;-63
2021/08/10 00:46:48;;;;;;;8.32;4.13;;;;;;;20.89;73.13;98798.72;4978234;28;20084;-63
2021/08/10 00:49:13;;;;;;;7.43;4.10;;;;;;;21.08;73.72;98841.16;4975087;28;20418;-63
2021/08/10 00:51:39;;;;;;;8.88;4.28;;;;;;;20.72;74.41;98803.63;4982128;28;20516;-63
2021/08/10 00:54:05;;;;;;;10.70;4.43;;;;;;;21.00;74.89;98846.69;4961994;28;20073;-62
2021/08/10 00:56:32;;;;;;;9.80;4.65;;;;;;;20.67;75.03;98807.91;4981485;28;20441;-63
2021/08/10 00:59:00;;;;;;;7.75;4.07;;;;;;;20.93;74.69;98836.91;4998023;28;20030;-64
2021/08/10 01:01:26;;;;;;;7.78;4.18;;;;;;;20.82;74.89;98826.97;4975264;28;20061;-63
2021/08/10 01:03:52;;;;;;;11.32;4.50;;;;;;;20.85;75.04;98839.78;4982124;28;20023;-63
2021/08/10 01:06:27;;;;;;;10.40;4.47;;;;;;;20.56;75.47;98804.03;4980780;28;20034;-61
2021/08/10 01:09:06;;;;;;;8.65;4.20;;;;;;;20.62;75.25;98800.56;4973557;28;20049;-63
2021/08/10 01:12:06;;;;;;;7.70;4.07;;;;;;;20.83;75.16;98836.53;4976753;28;20034;-63
2021/08/10 01:14:43;;;;;;;;;;;;;;;20.85;75.09;98837.16;4976381;28;20082;-63
2021/08/10 01:17:15;;;;;;;9.52;4.20;;;;;;;20.82;75.22;98834.09;4977688;28;19924;-62
2021/08/10 01:19:44;;;;;;;8.35;4.15;;;;;;;20.70;75.03;98829.44;4990726;28;20493;-62
2021/08/10 01:22:11;;;;;;;6.85;4.18;;;;;;;20.86;74.94;98837.94;4978269;28;20501;-63
2021/08/10 01:25:12;;;;;;;8.55;4.60;;;;;;;20.77;74.92;98849.75;4974942;28;20033;-64
2021/08/10 01:28:03;;;;;;;9.07;4.55;;;;;;;20.57;74.76;98821.47;4892868;29;20111;-62
2021/08/10 01:30:42;;;;;;;9.95;4.30;;;;;;;20.67;74.50;98839.59;4987091;28;20065;-62
2021/08/10 01:33:08;;;;;;;8.32;4.43;;;;;;;20.67;74.51;98836.97;4992202;28;20497;-62
2021/08/10 01:35:34;;;;;;;7.82;4.40;;;;;;;20.64;74.94;98847.94;4980400;28;20037;-63
2021/08/10 01:38:00;;;;;;;9.27;4.60;;;;;;;20.69;74.85;98853.41;4976017;28;20034;-63
2021/08/10 01:40:26;;;;;;;7.57;4.22;;;;;;;20.68;74.90;98854.44;4979811;28;20505;-62
2021/08/10 01:42:54;;;;;;;10.05;5.05;;;;;;;20.65;75.26;98854.84;4970730;28;20379;-63
2021/08/10 01:45:20;;;;;;;11.98;4.32;;;;;;;20.62;75.59;98858.69;4977367;28;20026;-64
2021/08/10 01:47:47;;;;;;;10.45;4.57;;;;;;;20.60;75.50;98860.69;4963329;28;20092;-63
2021/08/10 01:50:13;;;;;;;8.32;4.07;;;;;;;20.60;75.19;98858.06;4976490;28;20108;-63
2021/08/10 01:52:40;;;;;;;7.93;4.40;;;;;;;20.58;75.21;98862.75;4974983;28;20469;-64
2021/08/10 01:55:06;;;;;;;8.63;4.72;;;;;;;20.53;75.11;98850.16;4979801;28;20038;-63
2021/08/10 01:57:32;;;;;;;12.07;4.60;;;;;;;20.54;75.07;98859.69;4979322;28;20092;-62
2021/08/10 01:59:58;;;;;;;10.85;4.65;;;;;;;20.50;74.60;98853.19;4975190;28;20034;-63
2021/08/10 02:02:23;;;;;;;7.20;4.20;;;;;;;20.21;75.26;98816.63;4973492;28;20034;-62
2021/08/10 02:04:49;;;;;;;10.27;4.18;;;;;;;20.53;74.74;98863.38;4979143;28;20354;-64
2021/08/10 02:07:16;;;;;;;8.15;4.00;;;;;;;20.55;74.79;98863.97;4979182;28;20037;-63
2021/08/10 02:09:42;;;;;;;11.40;4.80;;;;;;;20.48;75.17;98843.81;4971996;28;20045;-63
2021/08/10 02:12:08;;;;;;;10.05;4.63;;;;;;;20.46;75.43;98857.25;4996745;28;20036;-63
2021/08/10 02:14:34;;;;;;;8.32;4.28;;;;;;;20.45;75.69;98854.81;4958981;28;20082;-62
2021/08/10 02:17:01;;;;;;;8.32;3.95;;;;;;;20.46;75.43;98853.78;4973051;28;20026;-62
2021/08/10 02:19:30;;;;;;;11.05;4.32;;;;;;;20.38;75.35;98860.09;4991196;28;20107;-63
2021/08/10 02:22:05;;;;;;;9.20;4.68;;;;;;;20.08;75.39;98810.31;4980816;28;20027;-63
2021/08/10 02:24:40;;;;;;;7.68;4.00;;;;;;;20.45;74.52;98860.91;4976478;28;20146;-63
2021/08/10 02:27:08;;;;;;;7.68;4.30;;;;;;;20.18;74.76;98812.53;4977754;28;20019;-63
2021/08/10 02:29:38;;;;;;;7.45;4.63;;;;;;;20.50;74.24;98860.31;4978487;28;20664;-63
2021/08/10 02:32:04;;;;;;;9.48;5.13;;;;;;;20.38;74.59;98854.00;4974661;28;20161;-59
2021/08/10 02:34:29;;;;;;;7.05;4.10;;;;;;;20.18;74.88;98823.09;4993504;28;20160;-64
2021/08/10 02:36:58;;;;;;;8.50;4.18;;;;;;;20.37;74.83;98869.03;4978674;28;20105;-64
2021/08/10 02:39:24;;;;;;;9.35;3.97;;;;;;;20.29;75.00;98863.94;4979116;28;20053;-62
2021/08/10 02:41:50;;;;;;;8.00;3.90;;;;;;;20.37;74.53;98858.47;4976016;28;20034;-63
2021/08/10 02:44:16;;;;;;;8.82;4.00;;;;;;;20.38;74.81;98861.91;4993372;28;20060;-63
2021/08/10 02:46:42;;;;;;;9.32;4.07;;;;;;;20.27;75.19;98852.78;4976601;28;20027;-63
2021/08/10 02:49:09;;;;;;;8.07;4.20;;;;;;;20.34;75.31;98857.03;4971985;28;20043;-62
2021/08/10 02:51:35;;;;;;;8.98;4.70;;;;;;;20.26;75.73;98851.13;4977573;28;20018;-63
2021/08/10 02:54:00;;;;;;;8.15;4.35;;;;;;;19.98;75.97;98805.41;4983630;28;20037;-64
2021/08/10 02:56:30;;;;;;;8.88;4.53;;;;;;;20.09;75.57;98817.19;4983329;28;20057;-63
2021/08/10 02:59:00;;;;;;;8.55;4.55;;;;;;;20.25;76.11;98852.16;4993264;28;20038;-63
2021/08/10 03:01:31;;;;;;;9.43;4.60;;;;;;;20.30;75.70;98865.56;4978689;28;20026;-63
2021/08/10 03:03:59;;;;;;;9.18;4.25;;;;;;;20.31;75.43;98869.81;4978245;28;20542;-64
2021/08/10 03:06:26;;;;;;;8.98;4.50;;;;;;;20.31;75.09;98861.91;4978544;28;20055;-63
2021/08/10 03:08:57;;;;;;;7.65;4.32;;;;;;;20.29;74.95;98863.94;4988335;28;20105;-63
2021/08/10 03:11:23;;;;;;;8.30;4.28;;;;;;;20.22;74.96;98849.91;4983179;28;20790;-64
2021/08/10 03:13:50;;;;;;;7.85;4.28;;;;;;;20.15;75.50;98863.09;4981459;28;20026;-63
2021/08/10 03:16:16;;;;;;;8.50;4.50;;;;;;;20.13;75.69;98850.13;4977509;28;20035;-61
2021/08/10 03:18:47;;;;;;;9.35;4.30;;;;;;;20.13;76.10;98865.13;4994769;28;20031;-64
2021/08/10 03:21:13;;;;;;;8.52;4.55;;;;;;;20.09;76.34;98869.19;4978235;28;20035;-63
2021/08/10 03:23:40;;;;;;;8.77;4.55;;;;;;;20.08;76.70;98857.00;4968993;28;20682;-62
2021/08/10 03:26:06;;;;;;;8.15;4.40;;;;;;;20.05;76.65;98865.31;4997899;28;20045;-63
2021/08/10 03:28:33;;;;;;;8.55;4.47;;;;;;;19.98;77.17;98858.19;4980173;28;20197;-63
2021/08/10 03:30:59;;;;;;;10.38;4.28;;;;;;;19.87;77.18;98821.03;4980801;28;20141;-63
2021/08/10 03:33:29;;;;;;;10.27;4.90;;;;;;;20.00;77.47;98870.38;4999277;28;20093;-61
2021/08/10 03:35:55;;;;;;;9.05;4.75;;;;;;;19.85;77.53;98852.88;4996376;28;20676;-63
2021/08/10 03:38:21;;;;;;;8.77;4.78;;;;;;;19.96;77.24;98859.41;4977862;28;20037;-62
2021/08/10 03:40:47;;;;;;;8.60;5.05;;;;;;;19.89;77.72;98872.56;4976220;28;20749;-63
2021/08/10 03:43:13;;;;;;;8.77;5.10;;;;;;;19.81;77.71;98858.78;4999167;28;20030;-62
2021/08/10 03:45:38;;;;;;;9.05;4.50;;;;;;;19.67;77.17;98842.03;4978450;28;20031;-63
2021/08/10 03:48:04;;;;;;;10.93;4.70;;;;;;;19.88;77.58;98872.81;4999281;28;20018;-63
2021/08/10 03:50:29;;;;;;;8.45;4.57;;;;;;;19.84;77.60;98872.38;4983186;28;20030;-62
2021/08/10 03:52:55;;;;;;;9.70;5.35;;;;;;;19.85;77.22;98867.91;4982766;28;20026;-63
2021/08/10 03:55:22;;;;;;;7.68;4.45;;;;;;;19.81;77.40;98872.78;4961026;28;20034;-63
2021/08/10 03:57:48;;;;;;;8.57;4.53;;;;;;;19.83;77.88;98886.56;4970484;28;20418;-59
2021/08/10 04:00:14;;;;;;;8.40;4.70;;;;;;;19.83;77.43;98875.22;4983027;28;20087;-61
2021/08/10 04:02:41;;;;;;;9.45;4.82;;;;;;;19.91;77.13;98880.31;4975773;28;20042;-63
2021/08/10 04:05:07;;;;;;;9.48;4.80;;;;;;;19.55;77.76;98837.34;4983406;28;20689;-63
2021/08/10 04:07:33;;;;;;;9.43;4.60;;;;;;;19.80;77.75;98886.16;4975069;28;20045;-61
2021/08/10 04:09:59;;;;;;;8.95;4.50;;;;;;;19.78;77.48;98870.53;4983824;28;20034;-63
2021/08/10 04:12:24;;;;;;;8.90;4.72;;;;;;;19.77;77.79;98880.25;4983232;28;20542;-61
2021/08/10 04:14:50;;;;;;;10.35;4.88;;;;;;;19.75;77.50;98876.19;4979956;28;20038;-62
2021/08/10 04:17:16;;;;;;;8.10;4.80;;;;;;;19.69;77.83;98875.13;4965443;28;20038;-63
2021/08/10 04:19:53;;;;;;;9.75;4.70;;;;;;;19.76;77.60;98869.91;4975320;28;20553;-61
2021/08/10 04:22:19;;;;;;;7.63;4.88;;;;;;;19.69;78.00;98869.03;4983367;28;20052;-62
2021/08/10 04:24:45;;;;;;;8.73;4.90;;;;;;;19.65;77.78;98865.97;4998590;28;20042;-61
2021/08/10 04:27:14;;;;;;;8.80;4.75;;;;;;;19.66;78.08;98877.34;4979814;28;20023;-63
2021/08/10 04:29:40;;;;;;;8.10;4.45;;;;;;;19.68;77.80;98860.31;4980365;28;20100;-63
2021/08/10 04:32:07;;;;;;;8.75;4.60;;;;;;;19.74;77.50;98864.81;4961473;28;20031;-63
2021/08/10 04:34:32;;;;;;;9.30;4.50;;;;;;;19.71;77.33;98867.84;4983573;28;20548;-65
2021/08/10 04:36:58;;;;;;;7.22;4.60;;;;;;;19.69;77.92;98864.56;4963157;28;20034;-63
2021/08/10 04:39:26;;;;;;;7.72;4.82;;;;;;;19.67;77.33;98861.31;4982702;28;20038;-62
2021/08/10 04:41:52;;;;;;;10.93;4.88;;;;;;;19.72;77.30;98858.09;4981706;28;20045;-63
2021/08/10 04:44:18;;;;;;;8.13;4.88;;;;;;;19.75;77.40;98860.34;4980786;28;20041;-63
2021/08/10 04:46:43;;;;;;;10.40;4.60;;;;;;;19.47;77.62;98824.31;4978906;28;20030;-61
2021/08/10 04:49:09;;;;;;;7.82;4.53;;;;;;;19.40;77.74;98819.03;4977433;28;20194;-63
2021/08/10 04:51:34;;;;;;;12.35;5.03;;;;;;;19.58;77.42;98855.38;4975660;28;20026;-64
2021/08/10 04:53:59;;;;;;;9.05;4.70;;;;;;;19.64;77.61;98860.91;4979013;28;20109;-60
2021/08/10 04:56:25;;;;;;;9.88;4.85;;;;;;;19.57;77.96;98860.88;4966428;28;20588;-62
2021/08/10 04:58:50;;;;;;;8.73;4.90;;;;;;;19.54;77.78;98848.88;4976702;28;20085;-66
2021/08/10 05:01:16;;;;;;;7.72;4.65;;;;;;;19.67;77.52;98865.78;4976345;28;20030;-63
2021/08/10 05:03:41;;;;;;;8.85;4.55;;;;;;;19.60;78.16;98871.03;4976014;28;20038;-63
2021/08/10 05:06:07;;;;;;;8.90;4.57;;;;;;;19.65;77.80;98865.16;4973952;28;20834;-63
2021/08/10 05:08:32;;;;;;;7.75;4.78;;;;;;;19.60;77.43;98860.47;4965039;28;20065;-62
2021/08/10 05:10:58;;;;;;;8.70;5.18;;;;;;;19.57;77.38;98843.22;4977317;28;20022;-63
2021/08/10 05:13:24;;;;;;;8.82;4.70;;;;;;;19.46;77.28;98829.78;4975086;28;20110;-62
2021/08/10 05:15:49;;;;;;;9.23;4.72;;;;;;;19.38;77.48;98818.41;4981099;28;20034;-63
2021/08/10 05:18:14;;;;;;;8.15;4.45;;;;;;;19.57;77.18;98848.50;4982882;28;20034;-62
2021/08/10 05:20:40;;;;;;;9.20;5.45;;;;;;;19.61;77.55;98861.31;4978699;28;20124;-63
2021/08/10 05:23:05;;;;;;;11.45;5.60;;;;;;;19.63;77.52;98867.19;4993513;28;20050;-58
2021/08/10 05:25:31;;;;;;;9.57;6.07;;;;;;;19.67;77.00;98863.16;4968297;28;20092;-62
2021/08/10 05:27:56;;;;;;;9.50;5.13;;;;;;;19.65;76.94;98867.81;4975554;28;20031;-63
2021/08/10 05:30:22;;;;;;;8.70;4.75;;;;;;;19.65;76.71;98870.44;4952983;28;20034;-64
2021/08/10 05:32:47;;;;;;;8.57;4.90;;;;;;;19.56;76.83;98857.41;4970380;28;20204;-62
2021/08/10 05:35:13;;;;;;;9.30;4.97;;;;;;;19.73;76.51;98867.66;4981575;28;20030;-62
2021/08/10 05:37:39;;;;;;;11.65;4.60;;;;;;;19.70;76.55;98868.03;4997706;28;20025;-60
2021/08/10 05:40:05;;;;;;;8.50;5.13;;;;;;;19.70;76.73;98878.59;4973669;28;20034;-61
2021/08/10 05:42:30;;;;;;;7.38;4.53;;;;;;;19.74;76.35;98864.00;4968142;28;20055;-62
2021/08/10 05:44:56;;;;;;;8.45;4.78;;;;;;;19.48;76.43;98825.16;4977577;28;20471;-62
2021/08/10 05:47:21;;;;;;;11.95;5.10;;;;;;;19.86;76.18;98878.28;4979733;28;20449;-63
2021/08/10 05:49:46;;;;;;;6.78;4.38;;;;;;;19.83;76.24;98877.84;4977634;28;20141;-62
2021/08/10 05:52:12;;;;;;;8.80;4.90;;;;;;;19.76;76.37;98880.47;4983869;28;20018;-62
2021/08/10 05:54:38;;;;;;;9.98;5.10;;;;;;;19.80;76.61;98878.25;4980613;28;20488;-61
2021/08/10 05:57:04;;;;;;;7.82;4.57;;;;;;;19.74;76.91;98872.72;4995321;28;20070;-62
2021/08/10 05:59:29;;;;;;;7.28;4.28;;;;;;;19.78;76.54;98878.44;4972797;28;20078;-63
2021/08/10 06:01:55;;;;;;;7.45;4.55;;;;;;;19.73;76.15;98868.50;4980134;28;20042;-63
2021/08/10 06:04:21;;;;;;;7.43;4.60;;;;;;;19.67;74.73;98829.66;4960759;28;20045;-62
2021/08/10 06:06:46;;;;;;;11.30;5.00;;;;;;;19.65;74.17;98825.59;4982724;28;20026;-61
2021/08/10 06:09:12;;;;;;;8.63;4.97;;;;;;;19.94;74.09;98866.72;4975361;28;20485;-63
2021/08/10 06:11:37;;;;;;;9.00;4.57;;;;;;;19.92;74.08;98869.56;4977952;28;20034;-63
2021/08/10 06:14:03;;;;;;;8.77;4.70;;;;;;;19.75;73.58;98842.72;4974332;28;20483;-62
2021/08/10 06:16:29;;;;;;;10.93;4.60;;;;;;;20.02;72.85;98873.63;4988993;28;20035;-62
2021/08/10 06:18:54;;;;;;;7.53;4.70;;;;;;;20.02;72.94;98877.06;4978739;28;20037;-62
2021/08/10 06:21:20;;;;;;;8.07;4.50;;;;;;;20.11;72.55;98880.34;4975561;28;20350;-63
2021/08/10 06:23:45;;;;;;;7.05;4.50;;;;;;;20.09;72.27;98883.19;4975122;28;20046;-62
2021/08/10 06:26:11;;;;;;;12.65;4.78;;;;;;;20.09;71.57;98880.53;4960525;28;20034;-63
2021/08/10 06:28:37;;;;;;;8.10;4.50;;;;;;;20.13;71.30;98876.53;4962040;28;20030;-61
2021/08/10 06:31:03;;;;;;;7.30;4.60;;;;;;;20.19;71.33;98884.63;4977125;28;20104;-64
2021/08/10 06:33:29;;;;;;;7.75;4.30;;;;;;;20.09;71.87;98870.00;4978277;28;20058;-63
2021/08/10 06:35:54;;;;;;;11.18;4.40;;;;;;;20.19;71.02;98881.97;4977523;28;20528;-64
2021/08/10 06:38:20;;;;;;;8.82;4.22;;;;;;;20.23;71.50;98876.13;4974672;28;20327;-62
2021/08/10 06:40:45;;;;;;;9.38;4.72;;;;;;;20.13;71.99;98887.06;4978675;28;20114;-63
2021/08/10 06:43:10;;;;;;;9.25;4.63;;;;;;;20.12;72.32;98885.44;4979894;28;20104;-63
2021/08/10 06:45:36;;;;;;;9.35;4.57;;;;;;;19.91;72.37;98846.81;4980846;28;20463;-62
2021/08/10 06:48:02;;;;;;;9.07;4.68;;;;;;;20.12;72.38;98887.28;4972739;28;20120;-64
2021/08/10 06:50:28;;;;;;;7.20;4.55;;;;;;;20.09;72.66;98877.09;4975715;28;20026;-63
2021/08/10 06:52:53;;;;;;;7.15;4.68;;;;;;;20.06;72.64;98877.50;4979331;28;20173;-62
2021/08/10 06:55:19;;;;;;;8.98;4.63;;;;;;;20.06;72.43;98866.94;4980851;28;20011;-63
2021/08/10 06:57:44;;;;;;;8.35;4.38;;;;;;;19.84;72.94;98834.59;4977724;28;20470;-60
2021/08/10 07:00:10;;;;;;;10.07;4.78;;;;;;;20.11;73.10;98877.72;4979292;28;20031;-64
2021/08/10 07:02:36;;;;;;;10.05;5.00;;;;;;;19.89;72.84;98835.63;4971918;28;20140;-63
2021/08/10 07:05:01;;;;;;;8.32;4.68;;;;;;;20.16;72.59;98875.28;4995516;28;20038;-62
2021/08/10 07:07:27;;;;;;;10.10;4.43;;;;;;;20.21;72.91;98872.88;4979149;28;20061;-64
2021/08/10 07:09:52;;;;;;;9.02;4.57;;;;;;;20.12;72.22;98851.13;4979014;28;20052;-63
2021/08/10 07:12:17;;;;;;;8.68;4.47;;;;;;;20.34;72.28;98869.44;4978110;28;20069;-63
2021/08/10 07:14:43;;;;;;;7.60;4.15;;;;;;;20.33;71.79;98867.78;4973261;28;20115;-63
2021/08/10 07:17:08;;;;;;;8.23;4.22;;;;;;;20.38;71.77;98870.66;4980232;28;20053;-64
2021/08/10 07:19:34;;;;;;;7.45;3.97;;;;;;;20.43;71.33;98865.56;4971866;28;20041;-61
2021/08/10 07:21:59;;;;;;;8.20;4.68;;;;;;;20.38;70.73;98849.53;4972547;28;20149;-63
2021/08/10 07:24:25;;;;;;;7.72;4.72;;;;;;;20.52;70.08;98853.81;4973906;28;20108;-62
2021/08/10 07:26:52;;;;;;;7.43;4.93;;;;;;;20.57;70.28;98855.00;4995746;28;20045;-62
2021/08/10 07:29:18;;;;;;;7.13;4.10;;;;;;;20.50;70.94;98842.63;4992392;28;20029;-63
2021/08/10 07:31:43;;;;;;;7.72;4.65;;;;;;;20.14;71.89;98795.50;4977880;28;20038;-62
2021/08/10 07:34:09;;;;;;;8.52;5.20;;;;;;;20.27;72.52;98829.81;4979719;28;20097;-63
2021/08/10 07:36:35;;;;;;;6.78;4.15;;;;;;;20.34;72.49;98840.38;4982461;28;20069;-62
2021/08/10 07:39:00;;;;;;;11.57;5.03;;;;;;;20.40;72.39;98857.25;4977413;28;20488;-62
2021/08/10 07:41:25;;;;;;;9.07;4.50;;;;;;;20.38;72.72;98846.06;4981940;28;20038;-60
2021/08/10 07:43:51;;;;;;;10.02;4.80;;;;;;;20.41;71.98;98843.84;4977492;28;20026;-63
2021/08/10 07:46:16;;;;;;;10.18;4.18;;;;;;;20.48;72.00;98849.09;4979323;28;20106;-62
2021/08/10 07:48:41;;;;;;;8.48;4.97;;;;;;;20.53;72.24;98842.22;4979725;28;20437;-63
2021/08/10 07:51:07;;;;;;;8.63;4.53;;;;;;;20.53;72.71;98844.03;4978454;28;20041;-62
2021/08/10 07:53:32;;;;;;;8.57;4.47;;;;;;;20.30;72.72;98789.81;4962469;28;20057;-63
2021/08/10 07:55:58;;;;;;;9.10;4.70;;;;;;;20.55;69.60;98789.19;4976274;28;20492;-63
2021/08/10 07:58:23;;;;;;;8.10;4.60;;;;;;;20.95;68.58;98828.78;4981747;28;20049;-62
2021/08/10 08:00:49;;;;;;;7.25;4.55;;;;;;;20.92;69.46;98822.09;4978234;28;20163;-63
2021/08/10 08:03:15;;;;;;;7.00;4.43;;;;;;;20.93;68.76;98810.47;4975721;28;20034;-63
2021/08/10 08:05:41;;;;;;;8.80;4.28;;;;;;;20.51;69.85;98759.72;4979898;28;21679;-63
2021/08/10 08:08:07;;;;;;;8.80;4.55;;;;;;;20.78;67.66;98783.50;4977990;28;20034;-62
2021/08/10 08:10:32;;;;;;;8.45;4.68;;;;;;;20.98;67.09;98793.22;4979282;28;20045;-63
2021/08/10 08:12:57;;;;;;;8.45;3.78;;;;;;;21.24;68.49;98826.69;4978426;28;20034;-63
2021/08/10 08:15:24;;;;;;;7.40;4.07;;;;;;;21.15;69.14;98830.56;4978286;28;20089;-63
2021/08/10 08:17:49;;;;;;;7.45;4.55;;;;;;;21.61;67.91;98825.16;4955239;28;20092;-63
2021/08/10 08:20:17;;;;;;;11.80;4.90;;;;;;;22.08;65.46;98780.66;4981413;28;20637;-61
2021/08/10 08:22:42;;;;;;;9.05;4.70;;;;;;;22.53;63.84;98778.91;4975573;28;20033;-63
2021/08/10 08:25:08;;;;;;;7.78;4.43;;;;;;;23.22;62.79;98822.06;4969545;28;20512;-62
2021/08/10 08:27:33;;;;;;;8.70;4.32;;;;;;;23.54;61.25;98822.69;4984687;28;20031;-63
2021/08/10 08:29:59;;;;;;;8.98;3.92;;;;;;;23.89;60.68;98816.72;4971706;28;20031;-63
2021/08/10 08:32:24;;;;;;;7.47;4.03;;;;;;;24.14;59.25;98823.72;4993336;28;20493;-62
2021/08/10 08:34:49;;;;;;;7.88;4.65;;;;;;;24.44;58.36;98807.75;4982647;28;20831;-63
2021/08/10 08:37:17;;;;;;;9.88;4.40;;;;;;;24.60;58.07;98814.22;4981557;28;20037;-63
2021/08/10 08:39:42;;;;;;;13.05;4.40;;;;;;;25.19;57.04;98813.34;4980584;28;20031;-62
2021/08/10 08:42:10;;;;;;;9.32;4.20;;;;;;;25.75;54.08;98803.00;4979075;28;20112;-62
2021/08/10 08:44:35;;;;;;;11.30;3.85;;;;;;;26.02;53.14;98817.38;4980271;28;20120;-62
2021/08/10 08:47:05;;;;;;;11.50;3.85;;;;;;;26.54;52.21;98818.19;4977398;28;20022;-62
2021/08/10 08:49:32;;;;;;;9.77;3.90;;;;;;;26.75;50.20;98817.47;4979473;28;20058;-63
2021/08/10 08:52:06;;;;;;;7.55;3.47;;;;;;;27.08;49.56;98774.94;4976352;28;20126;-60
2021/08/10 08:54:32;;;;;;;8.00;3.53;;;;;;;27.63;48.66;98808.66;4978412;28;20057;-62
2021/08/10 08:56:58;;;;;;;7.75;3.83;;;;;;;27.88;47.86;98818.00;4983959;28;20061;-63
2021/08/10 08:59:24;;;;;;;7.80;3.60;;;;;;;28.64;45.71;98806.34;4977894;28;20066;-63
2021/08/10 09:01:51;;;;;;;11.13;3.90;;;;;;;29.18;45.45;98816.03;4979382;28;20062;-62
2021/08/10 09:04:17;;;;;;;8.25;3.65;;;;;;;29.20;43.92;98777.19;4990331;28;20048;-63
2021/08/10 09:06:42;;;;;;;7.30;3.47;;;;;;;29.34;43.75;98774.84;4979241;28;20034;-62
2021/08/10 09:09:23;;;;;;;7.38;3.35;;;;;;;29.40;45.08;98811.28;4979471;28;20026;-62
2021/08/10 09:11:50;;;;;;;12.60;4.10;;;;;;;29.14;45.43;98807.72;4975634;28;20030;-62
2021/08/10 09:14:16;;;;;;;8.38;3.45;;;;;;;29.23;44.36;98805.34;4976149;28;20042;-62
2021/08/10 09:17:01;;;;;;;6.95;3.28;;;;;;;29.19;44.68;98805.06;4971047;28;20050;-63
2021/08/10 09:19:42;;;;;;;7.82;3.15;;;;;;;28.62;45.52;98797.78;4977662;28;20042;-63
2021/08/10 09:22:18;;;;;;;9.10;3.63;;;;;;;28.26;47.27;98802.88;4981745;28;20042;-61
2021/08/10 09:24:57;;;;;;;7.20;3.60;;;;;;;27.40;50.25;98805.25;4965966;28;20026;-59
2021/08/10 09:27:22;;;;;;;8.02;4.07;;;;;;;26.44;52.75;98803.66;4999214;28;20258;-62
2021/08/10 09:29:48;;;;;;;8.45;3.78;;;;;;;26.08;53.60;98794.28;4975529;28;20393;-63
2021/08/10 09:32:13;;;;;;;11.45;3.90;;;;;;;25.51;55.70;98790.59;4975611;28;20824;-63
2021/08/10 09:34:38;;;;;;;7.72;4.00;;;;;;;24.94;55.43;98750.63;4980541;28;20054;-63
2021/08/10 09:37:13;;;;;;;11.85;4.28;;;;;;;24.84;56.96;98791.09;4974911;28;20445;-63
2021/08/10 09:39:39;;;;;;;9.77;3.65;;;;;;;24.78;57.61;98802.66;4975898;28;20037;-63
2021/08/10 09:42:06;;;;;;;6.70;3.70;;;;;;;24.71;57.70;98800.13;4974192;28;20251;-62
2021/08/10 09:44:33;;;;;;;7.80;4.07;;;;;;;24.69;55.82;98790.75;4982027;28;20551;-62
2021/08/10 09:46:59;;;;;;;9.07;4.00;;;;;;;24.40;57.63;98752.59;4975728;28;20392;-63
2021/08/10 09:49:42;;;;;;;9.00;3.92;;;;;;;24.61;59.80;98778.63;4974755;28;20041;-61
2021/08/10 09:52:07;;;;;;;8.07;3.92;;;;;;;24.86;59.08;98794.34;4981282;28;20113;-63
2021/08/10 09:54:32;;;;;;;8.73;4.32;;;;;;;24.77;58.29;98787.78;4978818;28;20036;-62
2021/08/10 09:57:01;;;;;;;8.02;4.10;;;;;;;24.61;57.83;98793.78;4980990;28;20473;-61
2021/08/10 09:59:39;;;;;;;10.10;3.97;;;;;;;24.45;59.12;98781.97;4972780;28;20033;-63
2021/08/10 10:02:16;;;;;;;8.80;4.00;;;;;;;24.58;57.75;98800.34;4980809;28;20030;-64
2021/08/10 10:04:48;;;;;;;7.80;3.90;;;;;;;24.49;59.25;98791.09;4978572;28;20027;-63
2021/08/10 10:07:13;;;;;;;9.05;4.30;;;;;;;24.46;59.10;98791.53;4987386;28;20066;-63
2021/08/10 10:09:39;;;;;;;8.52;3.92;;;;;;;24.29;59.47;98752.38;4977099;28;20061;-64
2021/08/10 10:12:05;;;;;;;8.43;3.92;;;;;;;24.54;58.06;98783.25;4974340;28;20034;-63
2021/08/10 10:14:31;;;;;;;8.57;4.32;;;;;;;24.39;59.25;98735.88;4984858;28;20436;-63
2021/08/10 10:16:58;;;;;;;8.25;4.65;;;;;;;24.60;58.65;98747.78;4974459;28;20034;-62
2021/08/10 10:19:23;;;;;;;10.02;4.50;;;;;;;24.91;59.14;98770.50;4978740;28;20027;-63
2021/08/10 10:21:50;;;;;;;7.88;4.00;;;;;;;24.75;56.84;98785.34;4976282;28;20117;-63
2021/08/10 10:24:19;;;;;;;9.57;4.63;;;;;;;24.60;57.03;98782.31;4974984;28;20030;-64
2021/08/10 10:27:06;;;;;;;9.50;4.85;;;;;;;24.66;57.43;98778.75;4968952;28;20036;-62
2021/08/10 10:29:32;;;;;;;7.40;3.88;;;;;;;24.66;59.01;98778.75;4961037;28;20058;-63
2021/08/10 10:31:58;;;;;;;8.90;4.20;;;;;;;24.75;59.07;98768.56;4966385;28;20502;-62
2021/08/10 10:34:25;;;;;;;7.18;3.70;;;;;;;24.51;59.53;98734.00;4984005;28;20113;-63
2021/08/10 10:36:51;;;;;;;8.77;3.88;;;;;;;24.62;59.63;98727.06;4981825;28;20049;-62
2021/08/10 10:39:25;;;;;;;8.48;4.00;;;;;;;25.10;59.20;98767.69;4982979;28;20058;-64
2021/08/10 10:41:53;;;;;;;7.05;4.05;;;;;;;25.20;58.96;98740.47;4969388;28;20035;-63
2021/08/10 10:44:38;;;;;;;7.75;4.25;;;;;;;25.14;58.25;98728.94;4968469;28;20082;-63
2021/08/10 10:47:22;;;;;;;7.78;3.80;;;;;;;25.31;57.81;98760.94;4960316;28;20039;-64
2021/08/10 10:50:11;;;;;;;7.85;3.70;;;;;;;25.47;58.44;98762.03;4955683;28;20436;-61
2021/08/10 10:52:36;;;;;;;;;;;;;;;25.51;57.45;98756.00;4973028;28;20030;-64
2021/08/10 10:55:04;;;;;;;7.22;4.00;;;;;;;25.38;57.64;98716.38;4970336;28;19921;-63
2021/08/10 10:57:32;;;;;;;9.05;3.67;;;;;;;25.56;57.65;98749.16;4972185;28;20026;-62
2021/08/10 11:00:04;;;;;;;9.65;4.13;;;;;;;25.66;57.08;98750.13;4966229;28;20039;-64
2021/08/10 11:02:31;;;;;;;8.45;3.70;;;;;;;25.64;56.02;98716.81;4969930;28;20034;-63
2021/08/10 11:05:05;;;;;;;8.05;3.83;;;;;;;25.87;55.91;98715.88;4959149;28;20037;-64
2021/08/10 11:07:38;;;;;;;8.15;4.00;;;;;;;26.12;54.38;98736.81;4970545;28;20110;-63
2021/08/10 11:10:11;;;;;;;7.43;3.90;;;;;;;26.12;54.45;98739.47;4970195;28;20058;-63
2021/08/10 11:12:43;;;;;;;7.88;3.83;;;;;;;26.04;54.62;98737.22;4969533;28;20448;-63
2021/08/10 11:15:19;;;;;;;6.47;3.28;;;;;;;26.03;49.21;98727.59;4976083;28;20088;-63
2021/08/10 11:18:06;;;;;;;6.75;3.20;;;;;;;26.12;53.08;98726.16;4977642;28;20034;-63
2021/08/10 11:20:31;;;;;;;8.68;3.45;;;;;;;26.19;51.92;98723.31;4971245;28;20036;-63
2021/08/10 11:23:31;;;;;;;8.48;3.10;;;;;;;26.33;49.65;98721.91;4972913;28;20573;-64
2021/08/10 11:25:59;;;;;;;;;;;;;;;26.43;51.94;98722.06;4924302;28;20951;-62
2021/08/10 11:28:27;;;;;;;7.35;3.75;;;;;;;26.43;52.21;98721.25;4967849;28;19949;-63
2021/08/10 11:30:55;;;;;;;7.13;3.60;;;;;;;26.27;53.85;98681.06;4962651;28;20603;-63
2021/08/10 11:33:41;;;;;;;8.93;3.80;;;;;;;26.18;50.58;98674.53;4974005;28;20026;-65